createdAt,value
2017-04-10T08:42:16.344Z,64064
2017-04-10T08:42:57.811Z,62752
2017-04-10T08:43:38.713Z,63392
2017-04-10T08:44:20.066Z,66080
2017-04-10T08:45:00.641Z,68448
2017-04-10T08:45:41.199Z,70272
2017-04-10T08:46:21.868Z,70720
2017-04-10T08:47:02.487Z,71808
2017-04-10T08:47:42.960Z,70304
2017-04-10T08:48:23.454Z,70208
2017-04-10T08:50:41.478Z,70976
2017-04-10T08:51:21.896Z,71072
2017-04-10T08:52:04.123Z,69792
2017-04-10T08:52:44.531Z,69568
2017-04-10T08:53:26.784Z,70496
2017-04-10T08:54:07.188Z,71008
2017-04-10T08:54:47.674Z,72160
2017-04-10T08:55:28.224Z,65696
2017-04-10T08:56:08.773Z,48768
2017-04-10T08:56:49.274Z,29088
2017-04-10T08:57:29.939Z,20576
2017-04-10T08:58:10.458Z,20352
2017-04-10T08:58:51.021Z,20192
2017-04-10T08:59:31.473Z,20352
2017-04-10T09:01:49.382Z,21120
2017-04-10T09:02:33.204Z,21376
2017-04-10T09:03:15.364Z,21920
2017-04-10T09:03:55.885Z,22784
2017-04-10T09:04:36.499Z,30080
2017-04-10T09:05:17.243Z,51360
2017-04-10T09:05:57.822Z,72640
2017-04-10T09:06:38.370Z,82496
2017-04-10T09:07:19.647Z,82112
2017-04-10T09:08:00.097Z,82720
2017-04-10T09:08:42.226Z,81088
2017-04-10T09:09:22.832Z,82880
2017-04-10T09:10:03.415Z,85024
2017-04-10T09:10:43.932Z,86816
2017-04-10T09:11:25.449Z,88704
2017-04-10T09:12:06.042Z,93952
2017-04-10T09:12:47.217Z,97856
2017-04-10T09:13:28.179Z,101024
2017-04-10T09:14:08.804Z,100576
2017-04-10T09:14:49.197Z,100480
2017-04-10T09:15:29.744Z,99424
2017-04-10T09:16:11.122Z,99200
2017-04-10T09:16:54.306Z,99616
2017-04-10T09:17:36.557Z,100096
2017-04-10T09:18:16.977Z,101472
2017-04-10T09:18:57.433Z,101504
2017-04-10T09:19:37.994Z,101088
2017-04-10T09:20:18.461Z,101152
2017-04-10T09:20:58.951Z,101440
2017-04-10T09:21:39.497Z,99968
2017-04-10T09:22:19.962Z,99808
2017-04-10T09:23:01.253Z,98656
2017-04-10T09:23:41.719Z,99488
2017-04-10T09:24:23.952Z,102432
2017-04-10T09:25:04.367Z,101056
2017-04-10T09:25:44.894Z,99360
2017-04-10T09:26:26.178Z,96768
2017-04-10T09:27:06.717Z,95264
2017-04-10T09:27:48.942Z,94880
2017-04-10T09:28:29.416Z,93312
2017-04-10T09:29:09.852Z,93280
2017-04-10T09:29:50.351Z,92768
2017-04-10T09:30:32.222Z,92672
2017-04-10T09:31:12.678Z,93472
2017-04-10T09:33:30.666Z,97056
2017-04-10T09:34:11.187Z,97440
2017-04-10T09:34:51.671Z,90496
2017-04-10T09:35:32.956Z,95104
2017-04-10T09:36:14.215Z,94848
2017-04-10T09:36:54.703Z,95360
2017-04-10T09:37:36.658Z,95744
2017-04-10T09:38:17.096Z,96096
2017-04-10T09:38:58.278Z,98784
2017-04-10T09:39:39.688Z,98272
2017-04-10T09:40:22.624Z,96704
2017-04-10T09:41:05.933Z,96416
2017-04-10T09:41:48.014Z,96000
2017-04-10T09:42:28.454Z,93408
2017-04-10T09:43:09.453Z,92256
2017-04-10T09:43:50.610Z,95552
2017-04-10T09:44:32.116Z,97568
2017-04-10T09:45:13.484Z,89792
2017-04-10T09:45:53.929Z,61888
2017-04-10T09:46:36.105Z,33408
2017-04-10T09:47:16.608Z,22272
2017-04-10T09:47:57.184Z,22144
2017-04-10T09:48:38.107Z,21696
2017-04-10T09:49:18.695Z,20928
2017-04-10T09:49:59.114Z,19168
2017-04-10T09:50:42.172Z,17412
2017-04-10T09:51:23.375Z,16272
2017-04-10T09:52:04.596Z,15704
2017-04-10T09:52:45.071Z,15368
2017-04-10T09:53:25.566Z,15156
2017-04-10T09:54:05.999Z,14996
2017-04-10T09:56:03.728Z,14816
2017-04-10T09:56:44.176Z,14848
2017-04-10T09:57:24.638Z,14896
2017-04-10T09:59:52.921Z,15436
2017-04-10T10:00:33.376Z,15556
2017-04-10T10:01:13.794Z,15716
2017-04-10T10:01:54.309Z,16036
2017-04-10T10:02:34.879Z,16472
2017-04-10T10:03:15.360Z,16828
2017-04-10T10:03:55.842Z,17120
2017-04-10T10:04:36.303Z,20224
2017-04-10T10:05:16.726Z,43328
2017-04-10T10:05:57.237Z,76352
2017-04-10T10:06:37.692Z,98304
2017-04-10T10:07:18.203Z,99296
2017-04-10T10:07:58.667Z,99456
2017-04-10T10:08:39.189Z,96768
2017-04-10T10:09:19.722Z,98272
2017-04-10T10:10:00.286Z,99296
2017-04-10T10:10:41.482Z,98592
2017-04-10T10:11:21.949Z,98528
2017-04-10T10:12:02.510Z,97792
2017-04-10T10:12:43.067Z,98112
2017-04-10T10:13:23.698Z,98336
2017-04-10T10:14:04.251Z,98048
2017-04-10T10:14:44.865Z,98784
2017-04-10T10:15:25.418Z,98016
2017-04-10T10:16:06.088Z,100544
2017-04-10T10:16:46.774Z,101312
2017-04-10T10:17:27.435Z,101600
2017-04-10T10:18:08.031Z,101024
2017-04-10T10:18:48.638Z,101920
2017-04-10T10:19:29.189Z,108032
2017-04-10T10:20:09.781Z,111808
2017-04-10T10:20:50.499Z,109984
2017-04-10T10:21:31.052Z,106848
2017-04-10T10:22:11.829Z,106272
2017-04-10T10:22:52.400Z,107968
2017-04-10T10:23:33.021Z,109120
2017-04-10T10:24:13.597Z,108224
2017-04-10T10:24:54.253Z,108224
2017-04-10T10:25:34.872Z,108768
2017-04-10T10:26:15.512Z,108992
2017-04-10T10:26:55.971Z,110144
2017-04-10T10:27:36.438Z,109824
2017-04-10T10:28:16.984Z,106528
2017-04-10T10:28:57.456Z,84928
2017-04-10T10:29:37.938Z,51104
2017-04-10T10:30:18.447Z,26400
2017-04-10T10:30:58.931Z,25984
2017-04-10T10:31:39.386Z,27904
2017-04-10T10:32:19.859Z,29408
2017-04-10T10:33:00.344Z,29376
2017-04-10T10:33:40.877Z,28960
2017-04-10T10:34:21.460Z,28704
2017-04-10T10:35:02.012Z,29472
2017-04-10T10:35:42.472Z,30592
2017-04-10T10:36:22.955Z,31680
2017-04-10T10:37:03.528Z,36896
2017-04-10T10:37:43.885Z,67040
2017-04-10T10:38:24.429Z,94432
2017-04-10T10:39:05.040Z,119872
2017-04-10T10:39:45.465Z,117632
2017-04-10T10:40:25.944Z,116160
2017-04-10T10:41:06.581Z,116576
2017-04-10T10:41:47.441Z,115584
2017-04-10T10:42:27.926Z,117120
2017-04-10T10:43:08.396Z,113376
2017-04-10T10:43:48.973Z,111168
2017-04-10T10:44:31.003Z,108960
2017-04-10T10:45:14.080Z,112736
2017-04-10T10:45:54.545Z,114560
2017-04-10T10:46:35.085Z,113600
2017-04-10T10:47:15.525Z,113184
2017-04-10T10:47:56.000Z,109792
2017-04-10T10:48:36.559Z,113888
2017-04-10T10:49:17.822Z,110208
2017-04-10T10:49:58.297Z,106560
2017-04-10T10:50:38.824Z,94112
2017-04-10T10:51:19.289Z,94880
2017-04-10T10:51:59.755Z,100192
2017-04-10T10:52:40.215Z,97568
2017-04-10T10:53:20.727Z,99872
2017-04-10T10:54:01.229Z,88672
2017-04-10T10:54:41.723Z,98592
2017-04-10T10:55:22.299Z,108928
2017-04-10T10:56:03.646Z,113312
2017-04-10T10:56:44.114Z,119936
2017-04-10T10:57:25.389Z,117792
2017-04-10T10:58:05.964Z,109504
2017-04-10T11:00:23.849Z,114784
2017-04-10T11:01:04.809Z,97888
2017-04-10T11:01:45.337Z,98592
2017-04-10T11:02:25.833Z,102464
2017-04-10T11:03:06.354Z,101280
2017-04-10T11:03:46.824Z,99616
2017-04-10T11:04:27.358Z,106560
2017-04-10T11:05:07.813Z,109120
2017-04-10T11:05:48.309Z,114464
2017-04-10T11:06:28.825Z,120768
2017-04-10T11:07:09.308Z,106112
2017-04-10T11:07:49.907Z,112160
2017-04-10T11:08:30.310Z,114240
2017-04-10T11:09:10.775Z,115712
2017-04-10T11:09:51.245Z,105760
2017-04-10T11:10:31.740Z,112128
2017-04-10T11:13:04.964Z,114112
2017-04-10T11:13:45.412Z,95072
2017-04-10T11:15:58.236Z,103776
2017-04-10T11:16:38.715Z,105408
2017-04-10T11:17:19.249Z,100384
2017-04-10T11:17:59.782Z,97216
2017-04-10T11:18:40.311Z,90592
2017-04-10T11:21:08.649Z,111904
2017-04-10T11:21:49.886Z,109152
2017-04-10T11:22:30.763Z,107392
2017-04-10T11:23:11.250Z,113728
2017-04-10T11:25:09.562Z,82752
2017-04-10T11:25:50.221Z,90528
2017-04-10T11:26:30.645Z,91488
2017-04-10T11:27:11.174Z,88064
2017-04-10T11:27:51.679Z,90752
2017-04-10T11:28:32.169Z,94240
2017-04-10T11:29:12.650Z,100864
2017-04-10T11:29:53.078Z,96352
2017-04-10T11:30:33.559Z,96512
2017-04-10T11:31:14.048Z,106016
2017-04-10T11:31:54.479Z,106016
2017-04-10T11:32:34.974Z,109856
2017-04-10T11:33:15.496Z,107328
2017-04-10T11:33:55.957Z,99264
2017-04-10T11:34:36.515Z,104640
2017-04-10T11:35:17.149Z,101344
2017-04-10T11:35:57.725Z,96928
2017-04-10T11:36:38.322Z,92032
2017-04-10T11:37:18.882Z,96192
2017-04-10T11:37:59.513Z,95456
2017-04-10T11:38:40.175Z,94752
2017-04-10T11:39:20.638Z,97664
2017-04-10T11:40:01.131Z,94240
2017-04-10T11:40:41.598Z,90048
2017-04-10T11:41:22.145Z,93664
2017-04-10T11:42:02.619Z,102944
2017-04-10T11:42:43.130Z,99328
2017-04-10T11:43:23.686Z,103168
2017-04-10T11:44:05.182Z,104640
2017-04-10T11:44:45.744Z,109184
2017-04-10T11:45:26.395Z,85568
2017-04-10T11:46:06.954Z,114080
2017-04-10T11:46:47.521Z,110368
2017-04-10T11:47:28.023Z,110528
2017-04-10T11:48:08.572Z,109344
2017-04-10T11:48:49.114Z,93824
2017-04-10T11:49:29.747Z,91520
2017-04-10T11:50:10.349Z,102624
2017-04-10T11:50:50.936Z,93760
2017-04-10T11:51:31.687Z,99840
2017-04-10T11:52:12.250Z,102368
2017-04-10T11:52:52.707Z,104480
2017-04-10T11:53:33.162Z,103680
2017-04-10T11:54:13.679Z,102464
2017-04-10T11:54:54.169Z,99840
2017-04-10T11:57:12.048Z,99616
2017-04-10T11:59:45.114Z,97824
2017-04-10T12:00:25.602Z,97152
2017-04-10T12:01:06.107Z,100192
2017-04-10T12:01:46.582Z,102656
2017-04-10T12:02:27.016Z,102592
2017-04-10T12:03:07.545Z,101024
2017-04-10T12:03:48.026Z,99456
2017-04-10T12:04:28.547Z,97600
2017-04-10T12:05:09.050Z,99360
2017-04-10T12:05:49.524Z,99040
2017-04-10T12:06:30.807Z,98816
2017-04-10T12:07:11.249Z,99360
2017-04-10T12:07:51.822Z,100000
2017-04-10T12:08:32.212Z,98688
2017-04-10T12:09:12.712Z,97792
2017-04-10T12:09:53.182Z,94464
2017-04-10T12:10:33.667Z,85216
2017-04-10T12:11:14.133Z,87040
2017-04-10T12:11:54.666Z,91072
2017-04-10T12:12:35.112Z,87712
2017-04-10T12:13:15.579Z,90592
2017-04-10T12:15:48.969Z,93472
2017-04-10T12:16:29.260Z,99776
2017-04-10T12:17:09.717Z,99424
2017-04-10T12:17:50.229Z,98624
2017-04-10T12:18:30.704Z,99296
2017-04-10T12:20:50.960Z,92544
2017-04-10T12:21:31.481Z,90240
2017-04-10T12:22:11.948Z,92576
2017-04-10T12:22:52.385Z,95968
2017-04-10T12:24:50.044Z,87360
2017-04-10T12:25:30.629Z,87136
2017-04-10T12:26:11.065Z,84032
2017-04-10T12:26:51.550Z,86528
2017-04-10T12:27:31.961Z,94336
2017-04-10T12:29:59.967Z,89664
2017-04-10T12:30:40.470Z,92416
2017-04-10T12:31:20.966Z,80864
2017-04-10T12:32:01.427Z,78688
2017-04-10T12:32:41.987Z,95040
2017-04-10T12:35:10.706Z,81120
2017-04-10T12:35:51.184Z,115232
2017-04-10T12:36:31.727Z,99488
2017-04-10T12:37:12.150Z,104704
2017-04-10T12:37:52.596Z,65952
2017-04-10T12:38:33.091Z,55776
2017-04-10T12:39:13.611Z,49120
2017-04-10T12:39:54.121Z,46464
2017-04-10T12:40:34.584Z,36704
2017-04-10T12:43:07.672Z,29888
2017-04-10T12:43:48.153Z,13736
2017-04-10T12:44:28.635Z,34592
2017-04-10T12:45:09.128Z,36416
2017-04-10T12:45:50.519Z,36256
2017-04-10T12:46:31.009Z,32704
2017-04-10T12:47:11.496Z,32128
2017-04-10T12:47:51.955Z,33792
2017-04-10T12:50:04.779Z,35296
2017-04-10T12:50:45.212Z,36032
2017-04-10T12:51:25.686Z,36000
2017-04-10T12:52:06.211Z,36352
2017-04-10T12:52:46.696Z,35904
2017-04-10T12:54:44.351Z,35584
2017-04-10T12:55:24.827Z,36032
2017-04-10T12:57:22.726Z,32192
2017-04-10T12:58:03.161Z,31328
2017-04-10T12:58:43.778Z,32256
2017-04-10T12:59:24.420Z,33728
2017-04-10T13:00:04.892Z,33312
2017-04-10T13:00:45.322Z,33760
2017-04-10T13:01:25.774Z,33984
2017-04-10T13:02:06.241Z,33632
2017-04-10T13:02:46.746Z,33120
2017-04-10T13:03:27.244Z,32640
2017-04-10T13:04:07.703Z,32128
2017-04-10T13:04:48.165Z,31072
2017-04-10T13:05:28.711Z,30720
2017-04-10T13:06:09.180Z,29248
2017-04-10T13:06:49.725Z,28544
2017-04-10T13:07:30.201Z,28672
2017-04-10T13:08:10.696Z,29280
2017-04-10T13:08:51.171Z,29024
2017-04-10T13:09:31.657Z,28736
2017-04-10T13:10:12.176Z,28192
2017-04-10T13:10:52.632Z,28032
2017-04-10T13:11:33.187Z,27648
2017-04-10T13:12:13.801Z,27072
2017-04-10T13:12:54.345Z,26880
2017-04-10T13:13:35.433Z,26432
2017-04-10T13:14:15.965Z,26016
2017-04-10T13:14:56.516Z,25600
2017-04-10T13:15:37.095Z,25184
2017-04-10T13:16:17.698Z,24800
2017-04-10T13:16:58.158Z,24512
2017-04-10T13:17:38.754Z,23232
2017-04-10T13:18:19.201Z,21632
2017-04-10T13:18:59.734Z,23168
2017-04-10T13:19:40.196Z,22368
2017-04-10T13:20:20.640Z,21312
2017-04-10T13:22:39.649Z,19072
2017-04-10T13:23:21.892Z,18304
2017-04-10T13:24:05.398Z,18144
2017-04-10T13:24:46.155Z,19264
2017-04-10T13:25:26.639Z,18688
2017-04-10T13:26:07.166Z,18016
2017-04-10T13:26:47.780Z,16164
2017-04-10T13:27:29.340Z,16296
2017-04-10T13:28:09.985Z,15664
2017-04-10T13:28:50.523Z,16164
2017-04-10T13:29:30.993Z,15912
2017-04-10T13:30:12.097Z,14988
2017-04-10T13:30:52.560Z,15608
2017-04-10T13:31:33.111Z,15020
2017-04-10T13:32:14.296Z,15068
2017-04-10T13:32:54.795Z,15484
2017-04-10T13:33:35.352Z,14464
2017-04-10T13:34:16.608Z,14284
2017-04-10T13:34:58.848Z,14316
2017-04-10T13:35:42.205Z,14628
2017-04-10T13:36:22.731Z,15144
2017-04-10T13:37:03.142Z,15884
2017-04-10T13:37:43.648Z,16412
2017-04-10T13:38:24.139Z,15836
2017-04-10T13:39:04.736Z,15780
2017-04-10T13:39:45.475Z,15960
2017-04-10T13:40:26.254Z,17728
2017-04-10T13:41:06.920Z,18080
2017-04-10T13:41:47.289Z,18528
2017-04-10T13:42:27.858Z,18336
2017-04-10T13:43:08.336Z,18080
2017-04-10T13:43:48.892Z,17984
2017-04-10T13:44:29.428Z,17020
2017-04-10T13:45:10.915Z,16020
2017-04-10T13:45:51.451Z,16456
2017-04-10T13:46:31.980Z,16348
2017-04-10T13:47:12.444Z,15056
2017-04-10T13:47:52.945Z,15172
2017-04-10T13:48:33.413Z,14692
2017-04-10T13:49:13.848Z,14724
2017-04-10T13:51:11.532Z,14420
2017-04-10T13:51:52.001Z,13928
2017-04-10T13:52:32.509Z,13584
2017-04-10T13:53:12.976Z,13252
2017-04-10T13:53:54.259Z,12952
2017-04-10T13:56:22.365Z,12404
2017-04-10T13:57:02.799Z,12712
2017-04-10T13:57:43.286Z,12932
2017-04-10T13:58:23.744Z,12880
2017-04-10T13:59:04.201Z,12436
2017-04-10T13:59:44.701Z,12388
2017-04-10T14:00:25.203Z,11788
2017-04-10T14:01:05.694Z,12004
2017-04-10T14:01:46.176Z,12304
2017-04-10T14:02:26.665Z,12456
2017-04-10T14:04:24.368Z,13252
2017-04-10T14:05:04.836Z,13204
2017-04-10T14:05:45.295Z,12780
2017-04-10T14:08:13.620Z,13708
2017-04-10T14:08:54.048Z,13540
2017-04-10T14:09:35.791Z,13020
2017-04-10T14:12:09.268Z,10840
2017-04-10T14:12:49.934Z,8968
2017-04-10T14:13:30.498Z,13776
2017-04-10T14:14:11.135Z,14664
2017-04-10T14:14:51.753Z,15008
2017-04-10T14:15:32.416Z,14984
2017-04-10T14:16:13.030Z,15032
2017-04-10T14:16:53.614Z,14808
2017-04-10T14:17:34.282Z,14860
2017-04-10T14:18:14.929Z,14800
2017-04-10T14:18:55.502Z,11588
2017-04-10T14:21:13.382Z,15840
2017-04-10T14:21:53.832Z,15660
2017-04-10T14:22:34.393Z,15920
2017-04-10T14:23:14.925Z,15700
2017-04-10T14:23:55.479Z,16012
2017-04-10T14:24:35.984Z,15856
2017-04-10T14:25:17.470Z,15684
2017-04-10T14:25:57.996Z,15396
2017-04-10T14:26:38.545Z,15128
2017-04-10T14:27:19.109Z,14792
2017-04-10T14:27:59.644Z,14824
2017-04-10T14:28:40.204Z,14608
2017-04-10T14:29:20.829Z,14212
2017-04-10T14:30:01.352Z,13620
2017-04-10T14:30:42.023Z,13564
2017-04-10T14:31:22.606Z,13524
2017-04-10T14:32:03.113Z,13488
2017-04-10T14:32:43.645Z,13088
2017-04-10T14:33:24.161Z,13156
2017-04-10T14:34:04.627Z,12992
2017-04-10T14:36:22.497Z,12232
2017-04-10T14:37:02.989Z,11468
2017-04-10T14:37:43.473Z,9608
2017-04-10T14:38:23.988Z,9868
2017-04-10T14:39:04.436Z,10636
2017-04-10T14:39:44.966Z,9684
2017-04-10T14:40:25.472Z,12908
2017-04-10T14:41:06.028Z,11816
2017-04-10T14:43:23.962Z,8160
2017-04-10T14:44:04.367Z,8492
2017-04-10T14:44:44.856Z,8756
2017-04-10T14:47:02.983Z,8672
2017-04-10T14:47:43.455Z,10128
2017-04-10T14:48:23.971Z,11228
2017-04-10T14:49:04.430Z,11620
2017-04-10T14:49:44.916Z,11872
2017-04-10T14:50:25.376Z,12108
2017-04-10T14:51:05.887Z,12244
2017-04-10T14:51:46.381Z,11388
2017-04-10T14:52:26.865Z,11800
2017-04-10T14:53:07.419Z,11552
2017-04-10T14:53:47.844Z,11508
2017-04-10T14:54:28.338Z,11460
2017-04-10T14:55:08.851Z,11140
2017-04-10T14:55:49.395Z,11372
2017-04-10T14:56:29.873Z,10940
2017-04-10T14:57:10.343Z,10500
2017-04-10T14:57:50.826Z,10232
2017-04-10T14:58:31.252Z,10184
2017-04-10T14:59:11.714Z,10628
2017-04-10T14:59:52.204Z,10856
2017-04-10T15:00:32.661Z,10988
2017-04-10T15:01:13.110Z,11280
2017-04-10T15:01:53.574Z,11480
2017-04-10T15:04:06.565Z,11696
2017-04-10T15:04:46.965Z,11928
2017-04-10T15:05:27.437Z,6880
2017-04-10T15:06:07.923Z,7148
2017-04-10T15:06:48.347Z,12740
2017-04-10T15:07:28.814Z,12404
2017-04-10T15:08:09.255Z,13160
2017-04-10T15:08:49.755Z,12916
2017-04-10T15:09:30.410Z,14344
2017-04-10T15:10:10.820Z,11356
2017-04-10T15:10:51.319Z,9252
2017-04-10T15:11:31.797Z,9324
2017-04-10T15:12:12.309Z,9556
2017-04-10T15:14:10.051Z,8168
2017-04-10T15:14:50.539Z,9924
2017-04-10T15:15:31.011Z,9132
2017-04-10T15:16:11.554Z,9136
2017-04-10T15:16:52.034Z,10244
2017-04-10T15:17:32.574Z,9648
2017-04-10T15:20:05.646Z,9736
2017-04-10T15:20:46.105Z,9612
2017-04-10T15:21:26.563Z,9308
2017-04-10T15:22:07.072Z,9588
2017-04-10T15:22:47.537Z,9000
2017-04-10T15:23:28.004Z,8676
2017-04-10T15:24:15.105Z,8296
2017-04-10T15:24:57.409Z,9768
2017-04-10T15:25:43.883Z,9804
2017-04-10T15:26:27.382Z,9416
2017-04-10T15:27:09.671Z,9420
2017-04-10T15:27:50.125Z,9856
2017-04-10T15:28:31.408Z,10344
2017-04-10T15:29:11.975Z,10152
2017-04-10T15:29:52.412Z,9916
2017-04-10T15:30:32.964Z,10440
2017-04-10T15:31:13.436Z,10388
2017-04-10T15:33:11.123Z,11340
2017-04-10T15:33:51.597Z,11612
2017-04-10T15:34:32.124Z,11364
2017-04-10T15:35:12.576Z,10744
2017-04-10T15:35:53.105Z,9788
2017-04-10T15:36:33.630Z,8916
2017-04-10T15:37:14.525Z,9012
2017-04-10T15:39:32.458Z,10500
2017-04-10T15:40:12.977Z,10360
2017-04-10T15:40:53.500Z,10472
2017-04-10T15:41:33.936Z,8220
2017-04-10T15:42:14.379Z,7688
2017-04-10T15:42:54.866Z,7632
2017-04-10T15:43:35.308Z,7800
2017-04-10T15:44:15.839Z,9780
2017-04-10T15:44:56.352Z,8356
2017-04-10T15:45:36.858Z,7536
2017-04-10T15:46:17.342Z,6844
2017-04-10T15:46:57.802Z,7652
2017-04-10T15:48:55.477Z,5752
2017-04-10T15:49:36.036Z,5072
2017-04-10T15:51:48.667Z,5792
2017-04-10T15:52:29.158Z,6180
2017-04-10T15:53:09.608Z,6600
2017-04-10T15:55:07.296Z,5508
2017-04-10T15:55:47.778Z,5864
2017-04-10T15:56:28.169Z,6988
2017-04-10T15:57:08.697Z,5816
2017-04-10T15:57:49.132Z,5976
2017-04-10T15:58:29.625Z,5620
2017-04-10T15:59:10.047Z,6364
2017-04-10T15:59:51.270Z,7904
2017-04-10T16:00:31.714Z,7076
2017-04-10T16:01:12.169Z,8348
2017-04-10T16:01:52.786Z,8512
2017-04-10T16:02:33.369Z,8476
2017-04-10T16:03:13.817Z,8380
2017-04-10T16:03:54.269Z,7876
2017-04-10T16:05:51.973Z,6988
2017-04-10T16:06:32.448Z,6944
2017-04-10T16:07:12.964Z,6684
2017-04-10T16:09:10.636Z,5316
2017-04-10T16:09:51.060Z,4372
2017-04-10T16:10:31.510Z,4024
2017-04-10T16:11:12.014Z,3704
2017-04-10T16:11:52.453Z,3488
2017-04-10T16:12:32.913Z,3304
2017-04-10T16:13:14.090Z,3184
2017-04-10T16:13:54.618Z,3052
2017-04-10T16:14:35.061Z,3044
2017-04-10T16:16:52.917Z,3312
2017-04-10T16:17:33.371Z,3448
2017-04-10T16:18:13.821Z,3444
2017-04-10T16:18:54.307Z,3056
2017-04-10T16:19:34.771Z,2980
2017-04-10T16:20:15.279Z,2996
2017-04-10T16:20:55.747Z,2904
2017-04-10T16:21:36.212Z,2760
2017-04-10T16:22:16.655Z,2688
2017-04-10T16:22:57.122Z,2608
2017-04-10T16:23:37.578Z,2528
2017-04-10T16:24:18.081Z,2520
2017-04-10T16:24:58.513Z,2540
2017-04-10T16:25:38.973Z,2616
2017-04-10T16:26:19.530Z,2712
2017-04-10T16:26:59.956Z,2828
2017-04-10T16:27:40.431Z,3028
2017-04-10T16:30:08.445Z,3192
2017-04-10T16:30:48.919Z,3168
2017-04-10T16:31:29.326Z,3176
2017-04-10T16:32:09.781Z,3220
2017-04-10T16:32:50.315Z,3300
2017-04-10T16:33:30.750Z,3464
2017-04-10T16:34:11.209Z,3560
2017-04-10T16:36:44.234Z,3800
2017-04-10T16:37:24.752Z,3876
2017-04-10T16:38:05.203Z,4000
2017-04-10T16:38:45.676Z,4144
2017-04-10T16:39:26.111Z,4280
2017-04-10T16:40:06.624Z,4384
2017-04-10T16:42:04.277Z,4148
2017-04-10T16:42:44.720Z,4032
2017-04-10T16:43:25.175Z,3780
2017-04-10T16:44:05.645Z,3492
2017-04-10T16:44:46.112Z,3216
2017-04-10T16:45:27.245Z,2992
2017-04-10T16:46:07.713Z,2824
2017-04-10T16:46:48.156Z,2676
2017-04-10T16:47:28.607Z,2492
2017-04-10T16:49:41.573Z,2120
2017-04-10T16:50:22.259Z,2028
2017-04-10T16:51:02.711Z,1980
2017-04-10T16:51:43.226Z,1940
2017-04-10T16:52:23.700Z,1920
2017-04-10T16:53:04.156Z,1924
2017-04-10T16:53:44.592Z,1912
2017-04-10T16:54:25.014Z,1912
2017-04-10T16:55:06.220Z,1912
2017-04-10T16:55:46.696Z,1892
2017-04-10T16:56:27.156Z,1864
2017-04-10T16:58:45.461Z,1724
2017-04-10T17:01:03.365Z,1696
2017-04-10T17:01:43.835Z,1668
2017-04-10T17:02:24.339Z,1648
2017-04-10T17:03:04.840Z,1652
2017-04-10T17:05:33.061Z,1660
2017-04-10T17:06:13.518Z,1644
2017-04-10T17:06:53.990Z,1616
2017-04-10T17:07:34.457Z,1576
2017-04-10T17:08:14.935Z,1516
2017-04-10T17:10:27.721Z,1440
2017-04-10T17:11:08.182Z,1420
2017-04-10T17:11:48.693Z,1380
2017-04-10T17:12:30.057Z,1348
2017-04-10T17:14:48.713Z,1384
2017-04-10T17:15:29.266Z,1372
2017-04-10T17:16:09.732Z,1336
2017-04-10T17:16:50.203Z,1280
2017-04-10T17:17:30.647Z,1228
2017-04-10T17:18:11.108Z,1184
2017-04-10T17:18:51.547Z,1164
2017-04-10T17:19:32.054Z,1124
2017-04-10T17:20:12.471Z,1080
2017-04-10T17:20:52.938Z,1036
2017-04-10T17:21:33.362Z,992
2017-04-10T17:22:13.849Z,944
2017-04-10T17:22:54.300Z,896
2017-04-10T17:23:34.762Z,864
2017-04-10T17:24:15.358Z,840
2017-04-10T17:24:55.887Z,796
2017-04-10T17:25:36.321Z,752
2017-04-10T17:26:16.778Z,704
2017-04-10T17:26:57.245Z,656
2017-04-10T17:27:37.774Z,596
2017-04-10T17:28:18.219Z,532
2017-04-10T17:28:58.662Z,464
2017-04-10T17:29:39.138Z,404
2017-04-10T17:30:19.595Z,356
2017-04-10T17:31:00.058Z,340
2017-04-10T17:31:40.488Z,332
2017-04-10T17:32:21.021Z,320
2017-04-10T17:33:01.507Z,316
2017-04-10T17:33:41.923Z,304
2017-04-10T17:34:22.377Z,284
2017-04-10T17:35:02.835Z,276
2017-04-10T17:35:43.332Z,272
2017-04-10T17:36:23.762Z,268
2017-04-10T17:37:04.260Z,272
2017-04-10T17:37:44.677Z,284
2017-04-10T17:38:25.168Z,304
2017-04-10T17:40:43.061Z,384
2017-04-10T17:41:23.508Z,400
2017-04-10T17:42:03.950Z,420
2017-04-10T17:42:44.422Z,436
2017-04-10T17:43:24.854Z,440
2017-04-10T17:45:52.880Z,432
2017-04-10T17:46:33.307Z,444
2017-04-10T17:47:13.757Z,440
2017-04-10T17:47:54.203Z,448
2017-04-10T17:50:12.195Z,420
2017-04-10T17:50:52.682Z,404
2017-04-10T17:53:10.507Z,348
2017-04-10T17:53:50.901Z,328
2017-04-10T17:54:31.425Z,316
2017-04-10T17:56:49.250Z,252
2017-04-10T17:57:29.663Z,220
2017-04-10T17:58:10.149Z,196
2017-04-10T17:58:50.607Z,184
2017-04-10T17:59:31.051Z,172
2017-04-10T18:00:11.461Z,168
2017-04-10T18:00:51.883Z,160
2017-04-10T18:03:04.622Z,132
2017-04-10T18:03:45.076Z,120
2017-04-10T18:04:25.532Z,100
2017-04-10T18:05:06.044Z,88
2017-04-10T18:05:46.497Z,80
2017-04-10T18:06:26.967Z,76
2017-04-10T18:08:44.828Z,68
2017-04-10T18:09:25.256Z,64
2017-04-10T18:10:05.733Z,64
2017-04-10T18:10:46.201Z,64
2017-04-10T18:11:27.150Z,60
2017-04-10T18:12:07.596Z,52
2017-04-10T18:12:48.098Z,48
2017-04-10T18:15:05.950Z,36
2017-04-10T18:15:46.432Z,32
2017-04-10T18:16:26.896Z,32
2017-04-10T18:17:07.366Z,32
2017-04-10T18:17:47.842Z,28
2017-04-10T18:20:15.803Z,24
2017-04-10T18:20:56.279Z,24
2017-04-10T18:21:36.725Z,24
2017-04-10T18:22:17.185Z,20
2017-04-10T18:22:57.655Z,20
2017-04-10T18:25:25.639Z,16
2017-04-10T18:26:06.105Z,16
2017-04-10T18:26:46.538Z,16
2017-04-10T18:27:26.997Z,12
2017-04-10T18:28:07.488Z,12
2017-04-10T18:28:48.018Z,12
2017-04-10T18:29:28.417Z,8
2017-04-10T18:30:08.892Z,8
2017-04-10T18:30:49.319Z,8
2017-04-10T18:31:29.784Z,4
2017-04-10T18:32:10.244Z,4
2017-04-10T18:32:50.698Z,4
2017-04-10T18:33:31.130Z,4
2017-04-10T18:34:11.593Z,4
2017-04-10T18:34:51.987Z,4
2017-04-10T18:35:32.453Z,4
2017-04-10T18:38:06.665Z,0
2017-04-10T18:38:48.569Z,0
2017-04-10T18:39:30.476Z,0
2017-04-10T18:40:12.396Z,0
2017-04-10T18:40:54.326Z,0
2017-04-10T18:41:36.206Z,0
2017-04-10T18:42:18.117Z,0
2017-04-10T18:42:58.831Z,0
2017-04-10T18:43:39.260Z,0
2017-04-10T18:44:19.685Z,0
2017-04-10T18:45:00.146Z,0
2017-04-10T18:45:40.611Z,0
2017-04-10T18:46:21.060Z,0
2017-04-10T18:48:38.881Z,0
2017-04-10T18:49:19.325Z,0
2017-04-10T18:49:59.784Z,0
2017-04-10T18:50:40.259Z,0
2017-04-10T18:51:20.691Z,0
2017-04-10T18:52:01.139Z,0
2017-04-10T18:52:41.578Z,0
2017-04-10T18:53:22.043Z,0
2017-04-10T18:55:19.695Z,0
2017-04-10T18:56:00.127Z,0
2017-04-10T18:58:12.880Z,0
2017-04-10T18:58:53.330Z,0
2017-04-10T18:59:33.733Z,0
2017-04-10T19:00:14.183Z,0
2017-04-10T19:02:32.600Z,0
2017-04-10T19:03:13.026Z,0
2017-04-10T19:03:53.514Z,0
2017-04-10T19:04:34.032Z,0
2017-04-10T19:05:14.495Z,0
2017-04-10T19:05:54.928Z,0
2017-04-10T19:06:35.414Z,0
2017-04-10T19:07:15.886Z,0
2017-04-10T19:07:56.333Z,0
2017-04-10T19:10:29.507Z,0
2017-04-10T19:11:10.720Z,0
2017-04-10T19:11:51.191Z,0
2017-04-10T19:12:31.619Z,0
2017-04-10T19:13:12.108Z,0
2017-04-10T19:13:52.568Z,0
2017-04-10T19:14:33.006Z,0
2017-04-10T19:15:13.431Z,0
2017-04-10T19:15:53.855Z,0
2017-04-10T19:16:34.330Z,0
2017-04-10T19:17:14.771Z,0
2017-04-10T19:17:55.180Z,0
2017-04-10T19:18:35.654Z,0
2017-04-10T19:19:16.148Z,0
2017-04-10T19:19:56.611Z,0
2017-04-10T19:20:37.055Z,0
2017-04-10T19:21:17.518Z,0
2017-04-10T19:21:58.000Z,0
2017-04-10T19:22:38.436Z,0
2017-04-10T19:23:18.892Z,0